createdAt,value
2018-12-30T00:01:38.193Z,86.58
2018-12-30T00:04:06.497Z,86.57
2018-12-30T00:06:34.840Z,86.57
2018-12-30T00:09:03.173Z,86.60
2018-12-30T00:11:31.496Z,86.48
2018-12-30T00:13:59.865Z,86.55
2018-12-30T00:16:28.264Z,86.54
2018-12-30T00:18:56.593Z,86.63
2018-12-30T00:21:24.977Z,86.63
2018-12-30T00:23:53.563Z,86.65
2018-12-30T00:26:22.140Z,86.75
2018-12-30T00:28:50.676Z,86.85
2018-12-30T00:31:19.162Z,86.87
2018-12-30T00:33:47.860Z,86.98
2018-12-30T00:36:16.558Z,87.02
2018-12-30T00:38:44.705Z,87.18
2018-12-30T00:41:13.296Z,87.14
2018-12-30T00:43:41.650Z,87.13
2018-12-30T00:46:10.001Z,87.30
2018-12-30T00:48:38.404Z,87.32
2018-12-30T00:51:06.741Z,87.41
2018-12-30T00:53:35.190Z,87.55
2018-12-30T00:56:03.516Z,87.43
2018-12-30T00:58:31.849Z,87.44
2018-12-30T01:01:00.185Z,87.37
2018-12-30T01:03:28.525Z,87.27
2018-12-30T01:05:57.053Z,87.24
2018-12-30T01:08:25.381Z,87.30
2018-12-30T01:10:55.120Z,87.17
2018-12-30T01:13:22.846Z,87.02
2018-12-30T01:15:51.175Z,86.89
2018-12-30T01:18:19.522Z,86.83
2018-12-30T01:20:47.861Z,86.91
2018-12-30T01:23:16.189Z,86.87
2018-12-30T01:25:44.540Z,86.87
2018-12-30T01:28:12.851Z,86.66
2018-12-30T01:30:41.180Z,86.68
2018-12-30T01:33:09.506Z,86.61
2018-12-30T01:35:37.960Z,86.43
2018-12-30T01:38:06.293Z,86.32
2018-12-30T01:40:34.610Z,86.36
2018-12-30T01:43:02.945Z,86.38
2018-12-30T01:45:31.265Z,86.29
2018-12-30T01:47:59.598Z,86.19
2018-12-30T01:50:27.917Z,85.91
2018-12-30T01:52:56.249Z,85.75
2018-12-30T01:55:24.576Z,85.42
2018-12-30T01:57:52.923Z,85.36
2018-12-30T02:00:21.257Z,85.01
2018-12-30T02:02:49.580Z,84.77
2018-12-30T02:05:17.914Z,84.75
2018-12-30T02:07:46.239Z,84.68
2018-12-30T02:10:14.574Z,84.39
2018-12-30T02:12:42.903Z,84.30
2018-12-30T02:15:11.238Z,83.89
2018-12-30T02:17:39.565Z,83.90
2018-12-30T02:20:07.895Z,84.12
2018-12-30T02:22:36.210Z,83.97
2018-12-30T02:25:04.547Z,84.04
2018-12-30T02:27:32.865Z,84.33
2018-12-30T02:30:01.446Z,84.47
2018-12-30T02:32:29.512Z,84.56
2018-12-30T02:34:57.832Z,84.60
2018-12-30T02:37:26.170Z,84.74
2018-12-30T02:39:54.488Z,84.86
2018-12-30T02:42:22.825Z,85.05
2018-12-30T02:44:51.141Z,84.99
2018-12-30T02:47:19.483Z,85.01
2018-12-30T02:49:47.813Z,85.03
2018-12-30T02:52:16.139Z,85.02
2018-12-30T02:54:44.497Z,85.15
2018-12-30T02:57:12.802Z,85.29
2018-12-30T02:59:41.138Z,85.51
2018-12-30T03:02:09.458Z,85.42
2018-12-30T03:04:37.806Z,85.54
2018-12-30T03:07:06.414Z,85.53
2018-12-30T03:09:34.755Z,85.69
2018-12-30T03:12:03.073Z,85.62
2018-12-30T03:14:31.418Z,85.63
2018-12-30T03:16:59.755Z,85.66
2018-12-30T03:19:28.093Z,85.71
2018-12-30T03:21:59.271Z,85.67
2018-12-30T03:24:24.751Z,85.68
2018-12-30T03:26:53.085Z,85.64
2018-12-30T03:29:21.418Z,85.60
2018-12-30T03:31:49.752Z,85.66
2018-12-30T03:34:18.065Z,85.74
2018-12-30T03:36:46.403Z,85.67
2018-12-30T03:39:14.737Z,85.76
2018-12-30T03:41:43.050Z,85.78
2018-12-30T03:44:11.451Z,85.67
2018-12-30T03:46:39.718Z,85.67
2018-12-30T03:49:08.040Z,85.71
2018-12-30T03:51:36.385Z,85.62
2018-12-30T03:54:04.720Z,85.66
2018-12-30T03:56:33.053Z,85.69
2018-12-30T03:59:01.379Z,85.83
2018-12-30T04:01:29.706Z,85.65
2018-12-30T04:03:59.542Z,85.64
2018-12-30T04:06:27.876Z,85.70
2018-12-30T04:08:56.205Z,85.77
2018-12-30T04:11:24.545Z,85.84
2018-12-30T04:13:52.864Z,85.90
2018-12-30T04:16:21.189Z,86.02
2018-12-30T04:18:49.518Z,86.05
2018-12-30T04:21:17.847Z,86.08
2018-12-30T04:23:46.169Z,86.12
2018-12-30T04:26:15.535Z,86.11
2018-12-30T04:28:42.820Z,86.16
2018-12-30T04:31:11.158Z,86.29
2018-12-30T04:33:39.476Z,86.31
2018-12-30T04:36:07.799Z,86.34
2018-12-30T04:38:36.127Z,86.43
2018-12-30T04:41:04.466Z,86.41
2018-12-30T04:43:32.792Z,86.58
2018-12-30T04:46:01.120Z,86.60
2018-12-30T04:48:29.453Z,86.57
2018-12-30T04:50:57.783Z,86.66
2018-12-30T04:53:26.131Z,86.61
2018-12-30T04:55:54.937Z,86.47
2018-12-30T04:58:23.254Z,86.46
2018-12-30T05:00:51.579Z,86.54
2018-12-30T05:03:19.907Z,86.47
2018-12-30T05:05:48.230Z,86.52
2018-12-30T05:08:16.553Z,86.57
2018-12-30T05:10:44.886Z,86.53
2018-12-30T05:13:13.216Z,86.62
2018-12-30T05:15:42.141Z,86.61
2018-12-30T05:18:10.466Z,86.51
2018-12-30T05:20:38.797Z,86.44
2018-12-30T05:23:07.496Z,86.44
2018-12-30T05:25:35.821Z,86.28
2018-12-30T05:28:04.162Z,86.20
2018-12-30T05:30:32.503Z,86.07
2018-12-30T05:33:00.831Z,85.93
2018-12-30T05:35:29.159Z,85.68
2018-12-30T05:37:57.752Z,85.56
2018-12-30T05:40:26.070Z,85.31
2018-12-30T05:42:54.408Z,84.99
2018-12-30T05:45:22.748Z,84.94
2018-12-30T05:47:51.078Z,84.93
2018-12-30T05:50:19.397Z,84.88
2018-12-30T05:52:47.727Z,84.75
2018-12-30T05:55:16.050Z,84.70
2018-12-30T05:57:44.380Z,84.56
2018-12-30T06:00:12.698Z,84.37
2018-12-30T06:02:41.023Z,84.33
2018-12-30T06:05:09.355Z,84.17
2018-12-30T06:07:37.679Z,84.08
2018-12-30T06:10:06.014Z,84.12
2018-12-30T06:12:34.346Z,83.96
2018-12-30T06:15:02.676Z,83.80
2018-12-30T06:17:31.004Z,83.67
2018-12-30T06:19:59.332Z,83.45
2018-12-30T06:22:27.725Z,83.26
2018-12-30T06:24:55.988Z,83.13
2018-12-30T06:27:24.318Z,83.04
2018-12-30T06:29:52.644Z,83.16
2018-12-30T06:32:20.961Z,83.16
2018-12-30T06:34:49.277Z,83.10
2018-12-30T06:37:17.610Z,82.97
2018-12-30T06:39:45.925Z,82.83
2018-12-30T06:42:14.253Z,82.94
2018-12-30T06:44:42.579Z,82.80
2018-12-30T06:47:10.892Z,82.82
2018-12-30T06:49:39.218Z,82.75
2018-12-30T06:52:07.544Z,82.80
2018-12-30T06:54:35.867Z,82.77
2018-12-30T06:57:04.186Z,82.88
2018-12-30T06:59:32.510Z,83.07
2018-12-30T07:02:00.832Z,83.03
2018-12-30T07:04:29.141Z,83.11
2018-12-30T07:06:57.464Z,83.37
2018-12-30T07:09:25.774Z,83.46
2018-12-30T07:11:54.097Z,83.37
2018-12-30T07:14:22.426Z,83.32
2018-12-30T07:16:50.733Z,83.50
2018-12-30T07:19:19.067Z,83.57
2018-12-30T07:21:47.408Z,83.77
2018-12-30T07:24:15.729Z,83.92
2018-12-30T07:26:44.051Z,83.79
2018-12-30T07:29:12.387Z,83.75
2018-12-30T07:31:40.702Z,83.96
2018-12-30T07:34:09.055Z,83.89
2018-12-30T07:36:37.383Z,84.23
2018-12-30T07:39:05.716Z,84.24
2018-12-30T07:41:34.039Z,84.33
2018-12-30T07:44:02.693Z,84.46
2018-12-30T07:46:31.025Z,84.60
2018-12-30T07:48:59.364Z,84.67
2018-12-30T07:51:27.696Z,84.96
2018-12-30T07:53:56.325Z,85.37
2018-12-30T07:56:24.652Z,85.23
2018-12-30T07:58:53.011Z,85.23
2018-12-30T08:01:21.333Z,85.40
2018-12-30T08:03:49.646Z,85.40
2018-12-30T08:06:17.976Z,85.40
2018-12-30T08:08:46.304Z,85.42
2018-12-30T08:11:14.626Z,85.47
2018-12-30T08:13:42.960Z,85.40
2018-12-30T08:16:11.297Z,86.25
2018-12-30T08:18:39.613Z,86.63
2018-12-30T08:21:07.940Z,86.79
2018-12-30T08:23:36.276Z,86.36
2018-12-30T08:26:04.604Z,86.74
2018-12-30T08:28:32.928Z,86.92
2018-12-30T08:31:01.312Z,86.41
2018-12-30T08:33:29.639Z,86.66
2018-12-30T08:35:57.968Z,86.67
2018-12-30T08:38:26.300Z,86.48
2018-12-30T08:40:54.625Z,86.39
2018-12-30T08:43:22.961Z,86.28
2018-12-30T08:45:51.292Z,86.40
2018-12-30T08:48:19.707Z,86.35
2018-12-30T08:50:48.018Z,86.34
2018-12-30T08:53:16.553Z,86.19
2018-12-30T08:55:44.668Z,86.21
2018-12-30T08:58:12.975Z,86.16
2018-12-30T09:00:41.544Z,86.14
2018-12-30T09:03:09.656Z,86.12
2018-12-30T09:05:37.987Z,86.57
2018-12-30T09:08:06.312Z,86.75
2018-12-30T09:10:34.673Z,86.87
2018-12-30T09:13:03.008Z,87.13
2018-12-30T09:15:31.752Z,87.15
2018-12-30T09:18:00.065Z,87.12
2018-12-30T09:20:28.391Z,87.15
2018-12-30T09:22:56.735Z,87.27
2018-12-30T09:25:25.376Z,87.28
2018-12-30T09:27:53.715Z,87.14
2018-12-30T09:30:22.038Z,86.72
2018-12-30T09:32:50.366Z,86.77
2018-12-30T09:35:19.202Z,86.76
2018-12-30T09:37:47.544Z,86.77
2018-12-30T09:40:16.115Z,86.85
2018-12-30T09:42:44.210Z,86.84
2018-12-30T09:45:12.624Z,86.76
2018-12-30T09:47:40.863Z,86.97
2018-12-30T09:50:09.429Z,86.93
2018-12-30T09:52:37.541Z,86.66
2018-12-30T09:55:06.167Z,86.91
2018-12-30T09:57:34.487Z,87.29
2018-12-30T10:00:02.833Z,87.43
2018-12-30T10:02:31.157Z,87.33
2018-12-30T10:04:59.493Z,87.33
2018-12-30T10:07:27.824Z,87.31
2018-12-30T10:09:56.162Z,87.25
2018-12-30T10:12:24.491Z,87.54
2018-12-30T10:14:52.830Z,87.18
2018-12-30T10:17:21.165Z,87.25
2018-12-30T10:19:49.494Z,87.38
2018-12-30T10:22:17.836Z,87.21
2018-12-30T10:24:46.179Z,87.51
2018-12-30T10:27:14.518Z,87.56
2018-12-30T10:29:42.859Z,87.71
2018-12-30T10:32:12.136Z,87.57
2018-12-30T10:34:40.524Z,87.66
2018-12-30T10:37:08.847Z,87.36
2018-12-30T10:39:37.182Z,87.23
2018-12-30T10:42:05.501Z,87.59
2018-12-30T10:44:33.829Z,87.86
2018-12-30T10:47:02.158Z,87.90
2018-12-30T10:49:30.496Z,87.61
2018-12-30T10:51:58.845Z,87.73
2018-12-30T10:54:27.164Z,87.85
2018-12-30T10:56:55.505Z,87.36
2018-12-30T10:59:23.835Z,87.47
2018-12-30T11:01:52.239Z,87.64
2018-12-30T11:04:20.491Z,87.83
2018-12-30T11:06:49.541Z,87.72
2018-12-30T11:09:17.893Z,87.82
2018-12-30T11:11:46.772Z,87.96
2018-12-30T11:14:14.902Z,88.04
2018-12-30T11:16:43.208Z,88.16
2018-12-30T11:19:11.597Z,88.33
2018-12-30T11:21:41.008Z,88.57
2018-12-30T11:24:09.345Z,88.76
2018-12-30T11:26:37.682Z,88.91
2018-12-30T11:29:06.359Z,89.02
2018-12-30T11:31:34.695Z,89.06
2018-12-30T11:34:03.044Z,89.16
2018-12-30T11:36:31.377Z,89.22
2018-12-30T11:38:59.725Z,89.02
2018-12-30T11:41:28.064Z,89.17
2018-12-30T11:43:56.420Z,89.47
2018-12-30T11:46:24.756Z,89.50
2018-12-30T11:48:53.086Z,89.36
2018-12-30T11:51:21.413Z,89.41
2018-12-30T11:53:49.772Z,89.55
2018-12-30T11:56:18.078Z,89.58
2018-12-30T11:58:46.394Z,89.54
2018-12-30T12:01:14.721Z,89.58
2018-12-30T12:03:43.050Z,89.88
2018-12-30T12:06:11.383Z,89.96
2018-12-30T12:08:39.705Z,89.79
2018-12-30T12:11:08.059Z,89.94
2018-12-30T12:13:36.379Z,89.75
2018-12-30T12:16:04.720Z,89.75
2018-12-30T12:18:33.056Z,89.65
2018-12-30T12:21:01.380Z,89.46
2018-12-30T12:23:29.699Z,89.42
2018-12-30T12:25:58.045Z,89.57
2018-12-30T12:28:26.388Z,89.36
2018-12-30T12:30:54.741Z,89.42
2018-12-30T12:33:23.061Z,89.52
2018-12-30T12:35:51.601Z,89.54
2018-12-30T12:38:20.945Z,89.77
2018-12-30T12:40:49.273Z,89.89
2018-12-30T12:43:17.611Z,89.87
2018-12-30T12:45:45.947Z,89.70
2018-12-30T12:48:14.587Z,89.64
2018-12-30T12:50:43.169Z,89.43
2018-12-30T12:53:11.509Z,89.29
2018-12-30T12:55:39.886Z,89.19
2018-12-30T12:58:08.139Z,88.89
2018-12-30T13:00:36.462Z,88.81
2018-12-30T13:03:04.784Z,88.74
2018-12-30T13:05:33.104Z,88.57
2018-12-30T13:08:02.110Z,88.36
2018-12-30T13:10:30.438Z,88.32
2018-12-30T13:12:58.769Z,88.32
2018-12-30T13:15:27.083Z,88.25
2018-12-30T13:17:55.408Z,88.24
2018-12-30T13:20:23.737Z,88.21
2018-12-30T13:22:52.052Z,88.19
2018-12-30T13:25:20.382Z,88.15
2018-12-30T13:27:48.698Z,87.98
2018-12-30T13:30:17.018Z,88.01
2018-12-30T13:32:45.349Z,87.88
2018-12-30T13:35:13.694Z,87.92
2018-12-30T13:37:42.108Z,87.96
2018-12-30T13:40:10.352Z,87.91
2018-12-30T13:42:38.676Z,87.77
2018-12-30T13:45:07.268Z,87.59
2018-12-30T13:47:35.595Z,87.39
2018-12-30T13:50:03.947Z,87.29
2018-12-30T13:52:32.458Z,87.41
2018-12-30T13:55:00.913Z,87.37
2018-12-30T13:57:29.233Z,87.27
2018-12-30T13:59:57.562Z,87.49
2018-12-30T14:02:26.347Z,87.49
2018-12-30T14:04:54.687Z,87.55
2018-12-30T14:07:23.041Z,87.49
2018-12-30T14:09:53.097Z,87.56
2018-12-30T14:12:21.420Z,87.52
2018-12-30T14:14:49.782Z,87.41
2018-12-30T14:17:18.154Z,87.41
2018-12-30T14:19:46.479Z,87.40
2018-12-30T14:22:14.902Z,87.51
2018-12-30T14:24:43.213Z,87.45
2018-12-30T14:27:11.526Z,87.45
2018-12-30T14:29:39.841Z,87.47
2018-12-30T14:32:09.360Z,87.37
2018-12-30T14:34:37.453Z,87.15
2018-12-30T14:37:05.767Z,87.18
2018-12-30T14:39:34.086Z,87.18
2018-12-30T14:42:02.414Z,86.94
2018-12-30T14:44:30.764Z,86.83
2018-12-30T14:46:59.100Z,86.65
2018-12-30T14:49:27.435Z,86.66
2018-12-30T14:51:55.779Z,86.47
2018-12-30T14:54:24.116Z,85.97
2018-12-30T14:56:52.443Z,85.96
2018-12-30T14:59:21.078Z,86.03
2018-12-30T15:01:50.217Z,85.45
2018-12-30T15:04:18.543Z,85.75
2018-12-30T15:06:46.867Z,85.83
2018-12-30T15:09:15.199Z,85.68
2018-12-30T15:11:43.558Z,85.73
2018-12-30T15:14:11.879Z,85.86
2018-12-30T15:16:40.201Z,85.61
2018-12-30T15:19:08.548Z,85.64
2018-12-30T15:21:36.875Z,85.71
2018-12-30T15:24:05.207Z,85.75
2018-12-30T15:26:33.533Z,85.80
2018-12-30T15:29:01.865Z,85.85
2018-12-30T15:31:30.204Z,85.87
2018-12-30T15:33:58.517Z,86.13
2018-12-30T15:36:26.838Z,86.26
2018-12-30T15:38:55.173Z,86.24
2018-12-30T15:41:23.510Z,86.45
2018-12-30T15:43:51.992Z,86.41
2018-12-30T15:46:20.304Z,86.43
2018-12-30T15:48:48.626Z,86.34
2018-12-30T15:51:16.967Z,86.36
2018-12-30T15:53:46.107Z,86.47
2018-12-30T15:56:14.439Z,86.49
2018-12-30T15:58:42.777Z,86.50
2018-12-30T16:01:11.132Z,86.57
2018-12-30T16:03:39.441Z,86.52
2018-12-30T16:06:07.760Z,86.53
2018-12-30T16:08:36.078Z,86.61
2018-12-30T16:11:04.410Z,86.59
2018-12-30T16:13:33.166Z,86.70
2018-12-30T16:16:01.522Z,86.44
2018-12-30T16:18:29.856Z,86.35
2018-12-30T16:20:58.177Z,86.40
2018-12-30T16:23:26.542Z,86.39
2018-12-30T16:25:54.857Z,86.33
2018-12-30T16:28:24.138Z,86.18
2018-12-30T16:30:51.519Z,86.28
2018-12-30T16:33:20.964Z,86.15
2018-12-30T16:35:49.093Z,86.21
2018-12-30T16:38:21.513Z,86.32
2018-12-30T16:40:49.731Z,86.54
2018-12-30T16:43:18.470Z,86.53
2018-12-30T16:45:46.387Z,86.37
2018-12-30T16:48:14.713Z,86.20
2018-12-30T16:50:43.117Z,86.27
2018-12-30T16:53:13.370Z,86.30
2018-12-30T16:55:41.694Z,86.41
2018-12-30T16:58:10.033Z,86.58
2018-12-30T17:00:38.361Z,86.49
2018-12-30T17:03:06.833Z,86.48
2018-12-30T17:05:35.584Z,86.47
2018-12-30T17:08:03.898Z,86.63
2018-12-30T17:10:32.224Z,86.61
2018-12-30T17:13:00.544Z,86.72
2018-12-30T17:15:28.884Z,86.68
2018-12-30T17:17:57.212Z,86.68
2018-12-30T17:20:25.525Z,86.81
2018-12-30T17:22:53.849Z,86.94
2018-12-30T17:25:22.184Z,86.98
2018-12-30T17:27:50.567Z,87.04
2018-12-30T17:30:18.889Z,87.05
2018-12-30T17:32:47.450Z,87.13
2018-12-30T17:35:15.783Z,87.05
2018-12-30T17:37:44.105Z,87.10
2018-12-30T17:40:12.442Z,87.24
2018-12-30T17:42:41.482Z,87.14
2018-12-30T17:45:09.846Z,87.32
2018-12-30T17:47:38.166Z,87.30
2018-12-30T17:50:06.490Z,87.17
2018-12-30T17:52:35.736Z,87.05
2018-12-30T17:55:04.057Z,86.80
2018-12-30T17:57:32.661Z,86.66
2018-12-30T18:00:00.984Z,86.56
2018-12-30T18:02:29.313Z,86.52
2018-12-30T18:04:57.915Z,86.31
2018-12-30T18:07:27.080Z,85.92
2018-12-30T18:09:55.626Z,86.21
2018-12-30T18:12:23.784Z,86.16
2018-12-30T18:14:52.080Z,86.23
2018-12-30T18:17:20.434Z,86.11
2018-12-30T18:19:48.759Z,86.28
2018-12-30T18:22:17.106Z,86.17
2018-12-30T18:24:45.438Z,86.15
2018-12-30T18:27:14.055Z,85.85
2018-12-30T18:29:42.560Z,85.45
2018-12-30T18:32:10.891Z,85.60
2018-12-30T18:34:39.351Z,85.23
2018-12-30T18:37:07.680Z,85.20
2018-12-30T18:39:36.019Z,85.12
2018-12-30T18:42:04.564Z,84.81
2018-12-30T18:44:32.911Z,84.81
2018-12-30T18:47:01.678Z,84.80
2018-12-30T18:49:30.093Z,84.69
2018-12-30T18:51:58.430Z,84.68
2018-12-30T18:54:27.181Z,84.69
2018-12-30T18:56:56.367Z,84.33
2018-12-30T18:59:24.830Z,84.21
2018-12-30T19:01:53.279Z,83.90
2018-12-30T19:04:22.276Z,83.71
2018-12-30T19:06:50.883Z,83.90
2018-12-30T19:09:19.108Z,83.79
2018-12-30T19:11:47.787Z,83.97
2018-12-30T19:14:17.038Z,84.05
2018-12-30T19:16:45.507Z,84.01
2018-12-30T19:19:13.822Z,83.94
2018-12-30T19:21:42.138Z,83.85
2018-12-30T19:24:10.471Z,83.81
2018-12-30T19:26:38.796Z,83.74
2018-12-30T19:29:07.133Z,83.78
2018-12-30T19:31:35.742Z,83.77
2018-12-30T19:34:04.083Z,83.67
2018-12-30T19:36:32.426Z,83.74
2018-12-30T19:39:00.767Z,83.72
2018-12-30T19:41:29.098Z,83.69
2018-12-30T19:43:57.409Z,83.65
2018-12-30T19:46:25.749Z,83.85
2018-12-30T19:48:54.076Z,83.97
2018-12-30T19:51:22.414Z,83.93
2018-12-30T19:53:50.738Z,83.96
2018-12-30T19:56:22.060Z,84.07
2018-12-30T19:58:47.370Z,84.06
2018-12-30T20:01:15.688Z,83.96
2018-12-30T20:03:44.025Z,83.72
2018-12-30T20:06:12.350Z,83.37
2018-12-30T20:08:40.688Z,83.35
2018-12-30T20:11:10.806Z,83.26
2018-12-30T20:13:39.148Z,83.06
2018-12-30T20:16:07.481Z,82.60
2018-12-30T20:18:35.873Z,82.58
2018-12-30T20:21:04.293Z,82.49
2018-12-30T20:23:32.623Z,82.44
2018-12-30T20:26:01.279Z,82.10
2018-12-30T20:28:29.595Z,82.18
2018-12-30T20:30:58.244Z,82.34
2018-12-30T20:33:26.568Z,82.27
2018-12-30T20:35:54.986Z,82.36
2018-12-30T20:38:23.271Z,82.41
2018-12-30T20:40:51.599Z,82.38
2018-12-30T20:43:20.782Z,82.42
2018-12-30T20:45:49.336Z,82.38
2018-12-30T20:48:17.741Z,82.28
2018-12-30T20:50:45.895Z,82.21
2018-12-30T20:53:14.279Z,82.25
2018-12-30T20:55:42.632Z,82.19
2018-12-30T20:58:11.060Z,82.07
2018-12-30T21:00:39.415Z,82.06
2018-12-30T21:03:07.739Z,82.17
2018-12-30T21:05:36.084Z,81.99
2018-12-30T21:08:04.594Z,82.14
2018-12-30T21:10:32.961Z,82.15
2018-12-30T21:13:01.288Z,82.08
2018-12-30T21:15:29.634Z,82.30
2018-12-30T21:17:57.984Z,82.33
2018-12-30T21:20:26.312Z,82.37
2018-12-30T21:22:54.632Z,82.23
2018-12-30T21:25:22.946Z,82.33
2018-12-30T21:27:51.271Z,82.24
2018-12-30T21:30:19.604Z,82.27
2018-12-30T21:32:47.929Z,82.39
2018-12-30T21:35:16.255Z,82.29
2018-12-30T21:37:44.591Z,82.34
2018-12-30T21:40:13.507Z,82.35
2018-12-30T21:42:43.948Z,82.40
2018-12-30T21:45:10.160Z,82.43
2018-12-30T21:47:38.511Z,82.48
2018-12-30T21:50:06.852Z,82.36
2018-12-30T21:52:35.493Z,82.33
2018-12-30T21:55:03.837Z,82.16
2018-12-30T21:57:32.167Z,82.18
2018-12-30T22:00:00.480Z,82.12
2018-12-30T22:02:28.814Z,82.02
2018-12-30T22:04:57.133Z,82.03
2018-12-30T22:07:25.464Z,82.11
2018-12-30T22:09:53.788Z,82.24
2018-12-30T22:12:22.098Z,82.28
2018-12-30T22:14:59.515Z,82.30
2018-12-30T22:17:25.173Z,82.40
2018-12-30T22:19:57.239Z,82.43
2018-12-30T22:22:29.460Z,82.59
2018-12-30T22:25:01.532Z,82.66
2018-12-30T22:27:31.939Z,82.84
2018-12-30T22:30:02.233Z,82.98
2018-12-30T22:32:30.489Z,83.00
2018-12-30T22:34:58.814Z,83.06
2018-12-30T22:37:27.148Z,83.21
2018-12-30T22:40:01.003Z,83.27
2018-12-30T22:42:32.766Z,83.22
2018-12-30T22:44:57.184Z,83.16
2018-12-30T22:47:25.877Z,83.17
2018-12-30T22:49:57.234Z,83.18
2018-12-30T22:52:23.175Z,83.10
2018-12-30T22:54:51.499Z,83.03
2018-12-30T22:57:20.775Z,83.04
2018-12-30T22:59:51.064Z,83.03
2018-12-30T23:02:21.967Z,82.97
2018-12-30T23:04:50.298Z,83.05
2018-12-30T23:07:18.621Z,83.17
2018-12-30T23:09:46.947Z,83.32
2018-12-30T23:12:17.564Z,83.48
2018-12-30T23:14:45.892Z,83.53
2018-12-30T23:17:14.210Z,83.62
2018-12-30T23:19:42.542Z,83.59
2018-12-30T23:22:10.875Z,83.71
2018-12-30T23:24:39.198Z,83.69
2018-12-30T23:27:07.532Z,83.68
2018-12-30T23:29:35.861Z,83.86
2018-12-30T23:32:04.192Z,83.86
2018-12-30T23:34:32.516Z,83.87
2018-12-30T23:37:01.072Z,83.79
2018-12-30T23:39:29.170Z,83.80
2018-12-30T23:41:57.754Z,83.70
2018-12-30T23:44:25.842Z,83.63
2018-12-30T23:46:54.515Z,83.59
2018-12-30T23:49:23.174Z,83.54
2018-12-30T23:51:51.495Z,83.51
2018-12-30T23:54:21.717Z,83.43
2018-12-30T23:56:50.048Z,83.36
2018-12-30T23:59:18.373Z,83.42
